LEMD/MAD METAR and TAF weather

Enter ICAO airport designator
Station Type Date Time Source
LEMD METAR 2019/10/15 18:30 UTC NOAA

LEMD 151830Z 22007KT CAVOK 15/03 Q1021 NOSIG


Station Type Date Time Source
LEMD Decoded METAR 2019/10/15 18:30 UTC NOAA

Madrid / Barajas, Spain (LEMD) 40-27N 003-33W 582M
Oct 15, 2019 - 02:30 PM EDT / 2019.10.15 1830 UTC
Wind: from the SW (220 degrees) at 8 MPH (7 KT):0
Visibility: greater than 7 mile(s):0
Temperature: 59 F (15 C)
Dew Point: 37 F (3 C)
Relative Humidity: 44%
Pressure (altimeter): 30.15 in. Hg (1021 hPa)
ob: LEMD 151830Z 22007KT CAVOK 15/03 Q1021 NOSIG
cycle: 18

Station Type Date Time Source
LEMD TAF 2019/10/15 18:28 UTC NOAA

TAF COR LEMD 151700Z 1518/1624 VRB05KT 9999 FEW045 TX20/1615Z TN06/1606Z PROB30
TEMPO 1518/1519 21010KT PROB40
TEMPO 1610/1619 22010KT

Example: see airport list